Time;durP1;ratioP1;P1;durP2;ratioP2;P2;SDS_P1;SDS_P2;PMS_P1;PMS_P2;Temp;Humidity;BMP_temperature;BMP_pressure;BME280_temperature;BME280_humidity;BME280_pressure;Samples;Min_cycle;Max_cycle;Signal;HPM_P1;HPM_P2
2022/08/01 00:00:08;;;;;;;8.07;7.25;;;;;;;19.93;80.07;96635.84;5086848;28;20438;-61
2022/08/01 00:02:37;;;;;;;8.65;7.43;;;;;;;19.96;79.69;96623.72;5087641;28;20079;-62
2022/08/01 00:05:06;;;;;;;7.65;6.80;;;;;;;19.97;78.53;96633.72;5088071;28;20093;-62
2022/08/01 00:07:36;;;;;;;8.75;6.70;;;;;;;19.64;77.44;96592.81;5086342;28;20056;-60
2022/08/01 00:10:05;;;;;;;6.95;6.15;;;;;;;19.83;77.46;96625.66;5087931;28;20056;-62
2022/08/01 00:12:31;;;;;;;7.03;6.32;;;;;;;19.54;75.71;96598.28;5087432;28;20044;-61
2022/08/01 00:14:59;;;;;;;12.77;5.82;;;;;;;19.66;75.06;96636.13;5087758;28;20128;-60
2022/08/01 00:17:25;;;;;;;5.80;5.30;;;;;;;19.73;76.10;96623.94;5085723;28;20510;-61
2022/08/01 00:19:52;;;;;;;6.18;5.57;;;;;;;19.41;75.26;96571.34;5088008;28;20087;-61
2022/08/01 00:22:19;;;;;;;6.53;5.82;;;;;;;19.71;75.41;96617.94;5086435;28;20403;-61
2022/08/01 00:24:45;;;;;;;14.88;8.93;;;;;;;19.42;79.53;96617.88;5087709;28;20068;-60
2022/08/01 00:27:12;;;;;;;18.77;9.40;;;;;;;18.93;79.75;96537.59;5087322;28;20070;-61
2022/08/01 00:29:39;;;;;;;13.30;7.55;;;;;;;19.51;79.31;96616.03;5086442;28;20082;-60
2022/08/01 00:32:25;;;;;;;15.77;7.95;;;;;;;19.44;78.12;96621.81;5087012;28;20052;-61
2022/08/01 00:34:52;;;;;;;15.77;7.97;;;;;;;19.55;78.44;96627.94;5085761;28;20567;-61
2022/08/01 00:37:19;;;;;;;16.80;8.60;;;;;;;19.33;79.42;96596.00;5086848;28;20052;-61
2022/08/01 00:39:45;;;;;;;12.82;7.88;;;;;;;18.89;81.71;96546.09;5085742;28;20064;-61
2022/08/01 00:42:13;;;;;;;14.68;8.20;;;;;;;19.32;81.90;96613.28;5085459;28;20428;-61
2022/08/01 00:44:40;;;;;;;19.38;9.68;;;;;;;19.18;80.71;96591.94;5085593;28;20521;-61
2022/08/01 00:47:07;;;;;;;24.52;11.18;;;;;;;19.20;81.30;96600.72;5086689;28;20060;-60
2022/08/01 00:49:34;;;;;;;43.15;15.43;;;;;;;19.22;81.37;96601.03;5085901;28;20071;-60
2022/08/01 00:52:04;;;;;;;28.92;12.00;;;;;;;19.09;81.24;96605.78;5086926;28;20056;-60
2022/08/01 00:54:31;;;;;;;30.83;11.25;;;;;;;19.18;82.06;96607.97;5085509;28;20090;-61
2022/08/01 00:56:58;;;;;;;17.70;8.93;;;;;;;19.17;80.01;96607.19;5085365;28;20060;-61
2022/08/01 00:59:26;;;;;;;14.57;7.38;;;;;;;19.23;78.96;96611.06;5085861;27;20067;-61
2022/08/01 01:01:54;;;;;;;13.05;6.55;;;;;;;19.24;79.02;96604.22;5086670;28;20594;-61
2022/08/01 01:04:22;;;;;;;11.63;6.78;;;;;;;19.31;80.09;96598.47;5087020;28;20052;-60
2022/08/01 01:07:05;;;;;;;10.25;6.50;;;;;;;18.69;76.81;96503.28;5086330;28;20058;-61
2022/08/01 01:09:57;;;;;;;11.40;6.63;;;;;;;19.39;77.68;96596.28;5086440;28;20056;-62
2022/08/01 01:13:22;;;;;;;43.45;14.70;;;;;;;18.99;80.39;96606.81;5084752;28;20064;-62
2022/08/01 01:15:59;;;;;;;61.63;18.10;;;;;;;18.98;80.68;96610.84;5036068;28;20060;-62
2022/08/01 01:18:32;;;;;;;29.67;10.25;;;;;;;18.35;85.24;96595.38;5086490;28;20071;-61
2022/08/01 01:21:17;;;;;;;23.23;8.80;;;;;;;18.58;83.65;96597.31;5086777;28;20411;-61
2022/08/01 01:23:50;;;;;;;16.23;7.97;;;;;;;18.63;83.67;96597.59;5086380;28;20048;-61
2022/08/01 01:26:35;;;;;;;13.18;7.30;;;;;;;18.76;83.11;96592.88;5086037;28;20054;-60
2022/08/01 01:29:13;;;;;;;10.50;7.22;;;;;;;18.65;83.62;96597.94;5085849;28;20438;-61
2022/08/01 01:32:01;;;;;;;8.27;6.30;;;;;;;18.64;84.66;96596.38;5085839;28;20060;-60
2022/08/01 01:34:31;;;;;;;8.13;6.00;;;;;;;18.63;85.07;96602.41;5086517;28;20092;-61
2022/08/01 01:37:01;;;;;;;9.73;6.30;;;;;;;18.68;85.90;96602.72;5085032;28;20048;-59
2022/08/01 01:39:30;;;;;;;11.60;7.60;;;;;;;18.69;86.55;96593.06;5086139;28;20506;-60
2022/08/01 01:41:58;;;;;;;111.55;26.67;;;;;;;18.16;86.76;96589.75;5084266;28;20052;-60
2022/08/01 01:44:27;;;;;;;27.17;10.98;;;;;;;17.63;89.52;96593.53;5086093;28;20051;-61
2022/08/01 01:46:56;;;;;;;14.48;8.00;;;;;;;16.95;90.83;96550.28;5084501;28;20503;-60
2022/08/01 01:49:25;;;;;;;11.60;7.60;;;;;;;17.46;89.65;96601.06;5085933;28;20048;-60
2022/08/01 01:51:56;;;;;;;9.77;7.65;;;;;;;17.56;89.74;96588.09;5084215;28;20483;-60
2022/08/01 01:54:32;;;;;;;7.70;6.22;;;;;;;17.20;89.84;96514.28;5085940;28;20512;-60
2022/08/01 01:57:02;;;;;;;7.78;6.13;;;;;;;17.29;88.82;96567.72;5085506;28;20052;-61
2022/08/01 01:59:31;;;;;;;13.20;8.15;;;;;;;16.95;91.34;96590.25;5084306;28;20044;-60
2022/08/01 02:02:02;;;;;;;11.82;7.30;;;;;;;16.73;93.63;96586.19;5085476;28;20055;-60
2022/08/01 02:04:37;;;;;;;8.85;7.38;;;;;;;16.89;93.51;96571.56;5084258;28;20052;-61
2022/08/01 02:07:08;;;;;;;7.78;6.32;;;;;;;16.88;91.24;96545.59;5085485;28;20181;-61
2022/08/01 02:09:37;;;;;;;8.07;6.70;;;;;;;17.34;90.14;96587.59;5085673;28;20051;-60
2022/08/01 02:12:05;;;;;;;8.27;6.50;;;;;;;17.24;87.92;96587.78;5085520;28;20048;-60
2022/08/01 02:14:37;;;;;;;7.32;5.50;;;;;;;17.37;86.20;96592.34;5085434;28;20437;-62
2022/08/01 02:17:04;;;;;;;6.72;5.82;;;;;;;17.39;86.24;96597.53;5084895;28;20055;-59
2022/08/01 02:19:34;;;;;;;9.70;5.95;;;;;;;17.50;86.42;96595.38;5085618;28;20067;-60
2022/08/01 02:22:10;;;;;;;7.35;5.32;;;;;;;17.67;83.32;96588.69;5085094;28;20159;-59
2022/08/01 02:24:49;;;;;;;6.53;5.03;;;;;;;17.26;82.41;96504.19;5085562;28;20052;-60
2022/08/01 02:27:24;;;;;;;6.18;5.07;;;;;;;17.82;81.83;96578.78;5084918;28;20089;-60
2022/08/01 02:29:58;;;;;;;8.10;5.95;;;;;;;17.90;78.64;96583.84;5085643;28;20400;-60
2022/08/01 02:32:37;;;;;;;5.13;4.65;;;;;;;17.92;77.26;96578.56;5085181;28;20060;-60
2022/08/01 02:35:07;;;;;;;5.53;4.97;;;;;;;18.07;77.21;96576.28;5083843;28;20048;-62
2022/08/01 02:37:37;;;;;;;7.78;5.18;;;;;;;17.97;77.63;96575.28;5084954;28;20059;-61
2022/08/01 02:40:12;;;;;;;7.53;6.40;;;;;;;18.05;77.48;96575.97;5083691;28;20443;-61
2022/08/01 02:42:44;;;;;;;7.93;5.90;;;;;;;17.89;78.04;96556.25;5083180;28;20129;-60
2022/08/01 02:45:13;;;;;;;6.97;4.75;;;;;;;18.10;77.99;96569.81;5083133;28;20051;-60
2022/08/01 02:47:42;;;;;;;5.03;4.43;;;;;;;18.13;78.06;96574.56;5084883;28;20078;-62
2022/08/01 02:50:12;;;;;;;6.10;5.07;;;;;;;18.20;77.29;96576.44;5084667;28;20511;-63
2022/08/01 02:52:41;;;;;;;5.72;5.03;;;;;;;18.01;78.07;96580.81;4841936;27;5001590;-60
2022/08/01 02:55:10;;;;;;;7.57;6.15;;;;;;;17.82;78.99;96576.78;5081502;28;20048;-59
2022/08/01 02:57:38;;;;;;;5.30;4.70;;;;;;;17.95;78.28;96579.75;5084890;28;20044;-59
2022/08/01 03:00:18;;;;;;;23.85;8.85;;;;;;;17.59;80.81;96576.03;5083247;28;20407;-62
2022/08/01 03:02:54;;;;;;;10.10;6.13;;;;;;;17.32;81.33;96541.66;5083134;28;20052;-61
2022/08/01 03:05:23;;;;;;;7.13;5.68;;;;;;;17.68;81.13;96574.25;5084696;28;20036;-61
2022/08/01 03:07:52;;;;;;;6.35;5.28;;;;;;;17.29;81.28;96517.31;5084695;28;20472;-62
2022/08/01 03:10:21;;;;;;;6.53;5.57;;;;;;;17.65;80.29;96580.72;5083232;28;20177;-60
2022/08/01 03:12:49;;;;;;;9.30;5.85;;;;;;;17.81;79.39;96582.81;5084659;28;20070;-61
2022/08/01 03:15:17;;;;;;;5.75;5.07;;;;;;;17.79;80.07;96585.25;5084501;28;20550;-62
2022/08/01 03:17:46;;;;;;;5.95;5.35;;;;;;;17.77;77.86;96576.47;5083616;28;20466;-62
2022/08/01 03:20:16;;;;;;;7.68;5.57;;;;;;;17.87;77.72;96575.50;5084411;28;20062;-61
2022/08/01 03:22:45;;;;;;;7.45;4.93;;;;;;;17.38;77.17;96486.75;5084953;28;20055;-62
2022/08/01 03:25:13;;;;;;;7.07;5.53;;;;;;;17.94;76.92;96580.97;5084932;28;20074;-62
2022/08/01 03:27:43;;;;;;;5.88;5.28;;;;;;;17.39;77.13;96496.72;5084538;28;20548;-60
2022/08/01 03:30:11;;;;;;;7.07;6.07;;;;;;;18.07;77.03;96579.09;5083289;28;20084;-60
2022/08/01 03:32:38;;;;;;;6.90;5.72;;;;;;;18.13;77.25;96578.16;5084786;28;20055;-61
2022/08/01 03:35:05;;;;;;;5.68;5.13;;;;;;;18.00;77.61;96582.06;5084484;28;20055;-62
2022/08/01 03:37:44;;;;;;;5.78;5.18;;;;;;;17.99;77.42;96577.66;5083259;28;20048;-61
2022/08/01 03:40:41;;;;;;;5.82;5.07;;;;;;;18.06;76.63;96583.13;5084536;28;20435;-62
2022/08/01 03:43:18;;;;;;;6.65;5.00;;;;;;;18.00;75.88;96573.66;5084760;28;20071;-61
2022/08/01 03:45:50;;;;;;;6.13;5.10;;;;;;;18.03;75.37;96558.78;5084935;28;20044;-61
2022/08/01 03:48:19;;;;;;;10.48;5.32;;;;;;;18.15;74.86;96580.53;5083183;28;20059;-61
2022/08/01 03:50:50;;;;;;;7.60;4.85;;;;;;;18.26;74.67;96592.34;5084214;28;20064;-61
2022/08/01 03:53:22;;;;;;;5.45;4.95;;;;;;;18.30;73.83;96587.47;5083812;28;20056;-61
2022/08/01 03:55:49;;;;;;;5.95;4.65;;;;;;;17.83;73.83;96499.13;5084178;28;20047;-61
2022/08/01 03:58:17;;;;;;;5.82;4.75;;;;;;;18.35;73.73;96578.53;5082198;28;20495;-60
2022/08/01 04:00:44;;;;;;;4.90;4.00;;;;;;;18.47;72.26;96575.09;5082543;28;20087;-60
2022/08/01 04:03:12;;;;;;;7.15;4.65;;;;;;;18.37;72.05;96550.06;5084343;28;20272;-62
2022/08/01 04:05:43;;;;;;;5.53;4.65;;;;;;;18.54;71.81;96557.34;5086892;28;20079;-61
2022/08/01 04:08:10;;;;;;;4.63;4.22;;;;;;;18.78;71.88;96568.00;5087827;28;20075;-60
2022/08/01 04:10:37;;;;;;;5.20;4.43;;;;;;;18.28;71.39;96500.16;5087446;28;20052;-62
2022/08/01 04:13:04;;;;;;;5.28;3.95;;;;;;;18.89;67.22;96574.16;5087545;28;20052;-60
2022/08/01 04:15:30;;;;;;;4.07;3.35;;;;;;;19.05;66.04;96577.00;5088155;28;20055;-61
2022/08/01 04:17:57;;;;;;;4.80;3.63;;;;;;;19.29;65.34;96583.25;5086265;28;20047;-61
2022/08/01 04:20:24;;;;;;;5.65;3.40;;;;;;;19.05;65.90;96532.06;5087935;28;20056;-61
2022/08/01 04:22:51;;;;;;;6.75;3.90;;;;;;;19.68;63.85;96579.47;5087827;28;20044;-62
2022/08/01 04:25:34;;;;;;;3.50;3.20;;;;;;;19.83;63.21;96580.69;5086569;28;20044;-64
2022/08/01 04:28:03;;;;;;;3.65;3.35;;;;;;;19.96;61.50;96567.47;5087561;28;20048;-59
2022/08/01 04:30:34;;;;;;;3.97;3.58;;;;;;;20.10;61.37;96572.72;5087320;28;20589;-59
2022/08/01 04:33:04;;;;;;;6.35;3.40;;;;;;;19.99;60.72;96566.59;5087428;28;20064;-62
2022/08/01 04:35:33;;;;;;;3.28;2.92;;;;;;;19.77;58.02;96515.00;5087442;28;20439;-60
2022/08/01 04:38:27;;;;;;;3.97;3.28;;;;;;;20.33;57.17;96581.72;5086421;28;20083;-60
2022/08/01 04:40:54;;;;;;;3.45;2.70;;;;;;;20.43;58.08;96588.25;5087361;28;20942;-60
2022/08/01 04:43:22;;;;;;;7.18;3.13;;;;;;;20.66;57.56;96590.81;5087352;28;20051;-61
2022/08/01 04:45:51;;;;;;;4.22;3.13;;;;;;;20.71;57.91;96567.72;5085704;28;20439;-59
2022/08/01 04:48:19;;;;;;;18.30;3.40;;;;;;;20.84;55.95;96576.97;5087077;28;20071;-58
2022/08/01 04:50:48;;;;;;;3.45;2.50;;;;;;;20.88;56.94;96572.81;5087123;28;20473;-58
2022/08/01 04:53:21;;;;;;;8.55;2.95;;;;;;;21.08;55.48;96555.75;5087200;28;20470;-62
2022/08/01 04:55:48;;;;;;;7.87;3.00;;;;;;;20.84;55.44;96515.03;5086892;28;20059;-60
2022/08/01 04:58:15;;;;;;;6.35;3.00;;;;;;;21.15;56.11;96560.38;5086346;28;20060;-62
2022/08/01 05:00:45;;;;;;;3.17;2.38;;;;;;;21.12;55.50;96552.81;5086516;28;20055;-62
2022/08/01 05:03:12;;;;;;;3.72;2.35;;;;;;;21.19;56.04;96528.00;5086683;28;20054;-58
2022/08/01 05:05:39;;;;;;;7.03;3.10;;;;;;;21.49;55.79;96544.31;5086670;28;20054;-59
2022/08/01 05:08:05;;;;;;;3.50;2.67;;;;;;;21.48;55.21;96547.59;5086574;28;20052;-60
2022/08/01 05:10:33;;;;;;;3.42;2.72;;;;;;;21.70;54.37;96566.16;5086706;28;20063;-58
2022/08/01 05:12:59;;;;;;;5.10;2.92;;;;;;;21.90;54.59;96563.88;5086375;28;20051;-59
2022/08/01 05:15:26;;;;;;;4.05;2.58;;;;;;;21.97;53.62;96580.53;5086350;28;20044;-61
2022/08/01 05:17:54;;;;;;;3.13;2.80;;;;;;;21.65;52.91;96501.88;5086228;28;20062;-59
2022/08/01 05:20:21;;;;;;;3.15;2.90;;;;;;;22.27;51.46;96564.97;5086461;28;20055;-62
2022/08/01 05:22:48;;;;;;;4.28;3.13;;;;;;;22.39;50.11;96562.06;5086640;28;20059;-61
2022/08/01 05:25:14;;;;;;;5.22;3.15;;;;;;;22.61;50.57;96555.66;5086369;28;20582;-59
2022/08/01 05:28:01;;;;;;;3.90;3.53;;;;;;;22.84;50.01;96552.34;5086440;28;20124;-59
2022/08/01 05:30:29;;;;;;;3.45;3.15;;;;;;;23.13;48.68;96564.88;5085921;28;20127;-62
2022/08/01 05:32:55;;;;;;;3.45;3.00;;;;;;;23.37;48.07;96574.44;5085581;28;20047;-58
2022/08/01 05:35:22;;;;;;;4.72;4.25;;;;;;;23.35;48.80;96550.69;5085487;28;20059;-59
2022/08/01 05:38:09;;;;;;;7.07;3.75;;;;;;;23.21;48.59;96548.41;5085563;28;20457;-63
2022/08/01 05:40:40;;;;;;;4.95;3.22;;;;;;;23.65;49.33;96561.16;5085953;28;20052;-59
2022/08/01 05:43:07;;;;;;;7.00;5.13;;;;;;;23.85;47.28;96567.19;5084198;28;20056;-59
2022/08/01 05:45:33;;;;;;;7.20;3.75;;;;;;;23.99;45.93;96560.94;5085505;28;20056;-64
2022/08/01 05:48:00;;;;;;;4.35;3.65;;;;;;;24.14;46.38;96563.94;5085613;28;20070;-59
2022/08/01 05:50:27;;;;;;;5.13;3.40;;;;;;;24.18;45.51;96571.00;5085590;28;20056;-63
2022/08/01 05:52:53;;;;;;;5.28;3.00;;;;;;;23.99;43.88;96534.66;5085083;28;20059;-58
2022/08/01 05:55:20;;;;;;;6.97;3.38;;;;;;;24.36;43.73;96564.56;5085494;28;20056;-60
2022/08/01 05:57:47;;;;;;;4.93;2.65;;;;;;;24.48;43.65;96572.91;5085651;28;20638;-66
2022/08/01 06:00:15;;;;;;;3.20;2.90;;;;;;;24.42;44.01;96563.44;5085454;28;20047;-63
2022/08/01 06:02:42;;;;;;;6.03;3.08;;;;;;;24.53;43.29;96575.06;5079277;28;20471;-67
2022/08/01 06:05:10;;;;;;;5.22;2.50;;;;;;;22.80;42.48;96294.66;5066717;28;20056;-60
2022/08/01 06:07:39;;;;;;;3.72;2.75;;;;;;;24.49;42.64;96557.47;5064633;28;20056;-60
2022/08/01 06:10:07;;;;;;;3.05;2.75;;;;;;;24.42;42.28;96543.63;5081452;28;20438;-66
2022/08/01 06:12:35;;;;;;;5.05;3.13;;;;;;;24.79;42.65;96582.00;5082248;28;20063;-59
2022/08/01 06:15:07;;;;;;;6.43;3.67;;;;;;;24.95;42.00;96584.50;5083568;28;20048;-55
2022/08/01 06:17:34;;;;;;;4.95;3.40;;;;;;;25.10;41.70;96578.94;5083238;28;20078;-65
2022/08/01 06:20:00;;;;;;;3.30;2.80;;;;;;;24.89;42.22;96569.41;5073131;28;20040;-57
2022/08/01 06:22:27;;;;;;;4.18;2.50;;;;;;;24.75;41.91;96504.91;5079358;28;20476;-70
2022/08/01 06:24:54;;;;;;;3.55;2.95;;;;;;;25.39;41.24;96561.38;5081714;28;20078;-58
2022/08/01 06:27:21;;;;;;;2.97;2.78;;;;;;;25.31;40.98;96567.34;5064830;28;20057;-65
2022/08/01 06:29:48;;;;;;;4.82;3.20;;;;;;;25.30;41.16;96560.13;5096948;28;20467;-67
2022/08/01 06:32:22;;;;;;;3.33;2.95;;;;;;;25.41;41.42;96556.00;5092285;28;20048;-64
2022/08/01 06:34:54;;;;;;;3.28;2.88;;;;;;;25.55;41.64;96558.13;5083197;28;20051;-73
2022/08/01 06:37:21;;;;;;;4.93;2.83;;;;;;;25.59;40.93;96572.94;5082367;28;20052;-57
2022/08/01 06:39:49;;;;;;;3.70;3.40;;;;;;;25.72;40.86;96539.44;5084257;28;20063;-61
2022/08/01 06:42:17;;;;;;;2.95;2.75;;;;;;;26.03;40.82;96559.75;5084639;28;20054;-58
2022/08/01 06:44:44;;;;;;;3.63;3.33;;;;;;;26.24;40.77;96558.66;5084548;28;20064;-58
2022/08/01 06:47:10;;;;;;;3.55;2.80;;;;;;;26.03;39.79;96554.06;5068043;28;20618;-68
2022/08/01 06:49:37;;;;;;;3.10;2.80;;;;;;;25.54;39.82;96556.56;5064521;28;20065;-64
2022/08/01 06:52:04;;;;;;;3.72;2.65;;;;;;;24.84;39.63;96487.84;5064534;28;20049;-59
2022/08/01 06:54:31;;;;;;;3.22;2.88;;;;;;;25.24;40.45;96542.16;5063452;28;20113;-60
2022/08/01 06:56:58;;;;;;;2.95;2.72;;;;;;;25.15;40.24;96550.72;5064044;28;20052;-58
2022/08/01 06:59:25;;;;;;;2.67;2.47;;;;;;;25.19;39.75;96554.19;5084695;28;20487;-70
2022/08/01 07:01:51;;;;;;;6.25;2.83;;;;;;;25.10;40.36;96528.69;5084869;28;20173;-71
2022/08/01 07:04:18;;;;;;;3.38;2.63;;;;;;;23.43;40.66;96263.63;5082193;28;20044;-61
2022/08/01 07:06:44;;;;;;;2.75;2.50;;;;;;;25.26;39.44;96542.47;5081340;28;20468;-62
2022/08/01 07:09:11;;;;;;;3.35;2.50;;;;;;;25.27;39.95;96532.72;5067359;28;20526;-63
2022/08/01 07:11:40;;;;;;;4.82;2.67;;;;;;;25.40;40.36;96540.25;5064500;28;20049;-57
2022/08/01 07:14:07;;;;;;;2.85;2.50;;;;;;;25.50;40.20;96539.72;5062474;28;20467;-68
2022/08/01 07:16:34;;;;;;;4.88;3.05;;;;;;;25.43;39.29;96528.75;5071069;28;20047;-61
2022/08/01 07:19:01;;;;;;;3.50;3.10;;;;;;;25.54;39.78;96533.88;5083637;28;20071;-60
2022/08/01 07:21:28;;;;;;;3.22;3.03;;;;;;;25.57;39.44;96511.00;5075243;28;20118;-70
2022/08/01 07:24:08;;;;;;;2.80;2.50;;;;;;;25.02;38.98;96450.91;5062992;28;20049;-67
2022/08/01 07:26:45;;;;;;;2.85;2.58;;;;;;;25.22;39.46;96490.84;5066950;28;20083;-66
2022/08/01 07:29:21;;;;;;;3.30;2.97;;;;;;;25.64;39.69;96521.22;5074850;28;20135;-60
2022/08/01 07:31:48;;;;;;;3.00;2.78;;;;;;;25.83;39.14;96551.03;5082286;28;20502;-67
2022/08/01 07:34:15;;;;;;;3.40;2.33;;;;;;;25.80;39.23;96515.88;5081932;28;20135;-60
2022/08/01 07:36:42;;;;;;;2.65;2.47;;;;;;;25.99;39.01;96508.00;5083269;28;20052;-59
2022/08/01 07:39:09;;;;;;;2.95;2.75;;;;;;;25.95;39.21;96507.44;5084690;28;20056;-69
2022/08/01 07:41:35;;;;;;;2.80;2.60;;;;;;;26.19;38.23;96505.38;5079946;28;20048;-71
2022/08/01 07:44:22;;;;;;;2.83;2.63;;;;;;;26.15;40.03;96505.56;5066447;28;20122;-74
2022/08/01 07:46:49;;;;;;;3.28;2.97;;;;;;;26.24;38.84;96513.22;5072604;27;20047;-69
2022/08/01 07:49:15;;;;;;;3.58;3.10;;;;;;;26.26;39.75;96505.78;5069013;28;20056;-58
2022/08/01 07:51:42;;;;;;;5.18;3.30;;;;;;;26.09;39.41;96466.97;5082816;28;20060;-71
2022/08/01 07:54:29;;;;;;;4.68;3.08;;;;;;;26.42;38.10;96511.00;5077810;28;20567;-71
2022/08/01 07:57:00;;;;;;;3.65;3.35;;;;;;;26.45;38.50;96512.06;5068666;28;20045;-57
2022/08/01 07:59:26;;;;;;;3.28;3.00;;;;;;;26.35;38.91;96479.34;5087109;28;20438;-63
2022/08/01 08:01:53;;;;;;;3.00;2.72;;;;;;;26.55;38.88;96517.19;5087827;28;20063;-59
2022/08/01 08:04:20;;;;;;;3.22;2.90;;;;;;;26.43;38.58;96514.63;5081212;28;20060;-56
2022/08/01 08:06:47;;;;;;;4.47;3.75;;;;;;;26.45;39.89;96503.53;5067356;28;20049;-69
2022/08/01 08:09:15;;;;;;;4.57;3.20;;;;;;;26.44;39.39;96476.41;5070426;28;20098;-58
2022/08/01 08:11:43;;;;;;;4.20;3.03;;;;;;;26.61;39.36;96517.28;5080561;28;20501;-68
2022/08/01 08:14:14;;;;;;;3.03;2.83;;;;;;;26.64;39.01;96527.69;5059754;28;20048;-58
2022/08/01 08:16:42;;;;;;;4.95;3.10;;;;;;;26.71;39.17;96513.09;5086647;28;20139;-70
2022/08/01 08:19:08;;;;;;;3.50;3.20;;;;;;;26.33;39.27;96464.84;5083911;28;20052;-67
2022/08/01 08:21:37;;;;;;;4.30;3.35;;;;;;;26.64;38.85;96536.22;5083815;28;20040;-71
2022/08/01 08:24:19;;;;;;;3.03;2.83;;;;;;;26.39;39.29;96496.97;5071285;28;20052;-69
2022/08/01 08:26:58;;;;;;;4.82;3.25;;;;;;;26.62;39.24;96521.66;5077615;28;20058;-60
2022/08/01 08:29:26;;;;;;;4.75;3.40;;;;;;;26.28;38.66;96474.84;5082017;28;20044;-63
2022/08/01 08:31:54;;;;;;;7.20;3.30;;;;;;;26.44;39.89;96516.97;5085988;28;20051;-68
2022/08/01 08:34:23;;;;;;;3.55;3.25;;;;;;;26.57;38.80;96520.31;5078597;28;20442;-61
2022/08/01 08:36:50;;;;;;;3.83;3.53;;;;;;;24.40;39.21;96202.75;5086594;28;20524;-58
2022/08/01 08:39:17;;;;;;;3.42;3.13;;;;;;;26.47;39.17;96532.25;5086803;28;20051;-57
2022/08/01 08:41:45;;;;;;;6.35;3.60;;;;;;;26.55;39.21;96533.44;5085127;28;20513;-59
2022/08/01 08:44:17;;;;;;;4.40;3.03;;;;;;;26.44;38.78;96553.13;5081190;28;20495;-69
2022/08/01 08:46:48;;;;;;;5.05;3.22;;;;;;;26.41;38.32;96517.16;5075704;28;20048;-69
2022/08/01 08:49:20;;;;;;;3.35;3.05;;;;;;;26.04;38.96;96476.94;5072017;28;20052;-59
2022/08/01 08:51:49;;;;;;;3.13;2.90;;;;;;;26.61;39.18;96526.59;5076293;28;20126;-58
2022/08/01 08:54:19;;;;;;;3.53;3.28;;;;;;;26.70;39.45;96543.56;5066445;28;20053;-60
2022/08/01 08:56:47;;;;;;;3.63;3.33;;;;;;;26.73;39.18;96516.22;5072828;28;20500;-68
2022/08/01 08:59:14;;;;;;;7.25;3.22;;;;;;;26.89;38.96;96487.31;5077814;28;20057;-62
2022/08/01 09:01:42;;;;;;;3.50;3.20;;;;;;;27.25;38.30;96529.50;5074857;28;20052;-67
2022/08/01 09:04:10;;;;;;;6.82;3.33;;;;;;;27.32;37.71;96519.81;5066676;28;20055;-67
2022/08/01 09:06:38;;;;;;;3.47;3.20;;;;;;;27.26;37.32;96525.44;5064542;28;20056;-64
2022/08/01 09:09:05;;;;;;;3.65;3.38;;;;;;;27.16;37.62;96475.59;5071787;28;20424;-60
2022/08/01 09:11:33;;;;;;;3.33;3.03;;;;;;;27.14;37.87;96478.13;5082057;28;20264;-65
2022/08/01 09:14:03;;;;;;;4.47;3.22;;;;;;;27.61;37.60;96520.56;5079067;28;20135;-59
2022/08/01 09:16:31;;;;;;;3.53;3.28;;;;;;;27.37;37.18;96521.97;5067800;28;20052;-56
2022/08/01 09:19:11;;;;;;;3.50;3.22;;;;;;;27.13;37.72;96499.34;5073735;28;20052;-56
2022/08/01 09:22:00;;;;;;;3.55;3.35;;;;;;;27.27;37.85;96512.78;5066181;28;20060;-57
2022/08/01 09:24:28;;;;;;;3.53;3.22;;;;;;;27.25;38.92;96512.44;5080882;28;20056;-67
2022/08/01 09:26:57;;;;;;;4.28;3.88;;;;;;;26.82;37.99;96430.06;5085998;28;20100;-67
2022/08/01 09:29:29;;;;;;;3.35;3.15;;;;;;;27.28;38.78;96499.34;5086024;28;20052;-56
2022/08/01 09:32:06;;;;;;;3.40;3.08;;;;;;;27.35;37.75;96518.84;5086002;28;20051;-56
2022/08/01 09:34:39;;;;;;;;;;;;;;;27.31;38.02;96521.91;5085768;28;20056;-67
2022/08/01 09:37:06;;;;;;;3.22;3.03;;;;;;;27.32;37.75;96517.78;5085386;28;20343;-56
2022/08/01 09:39:40;;;;;;;3.05;2.85;;;;;;;26.93;37.78;96470.84;5085930;28;20052;-55
2022/08/01 09:42:20;;;;;;;3.77;2.80;;;;;;;27.25;38.38;96503.91;5085404;28;20519;-56
2022/08/01 09:44:55;;;;;;;3.13;2.92;;;;;;;27.49;38.00;96510.25;5084856;28;20063;-59
2022/08/01 09:47:22;;;;;;;3.17;2.88;;;;;;;27.67;37.72;96504.31;5085281;28;20058;-66
2022/08/01 09:49:56;;;;;;;3.08;2.88;;;;;;;27.60;37.21;96493.34;5085565;28;20597;-64
2022/08/01 09:52:26;;;;;;;3.13;2.92;;;;;;;27.52;37.52;96497.88;5069415;28;20057;-67
2022/08/01 09:54:58;;;;;;;3.72;3.30;;;;;;;27.62;38.19;96479.41;5067930;28;20048;-76
2022/08/01 09:57:25;;;;;;;3.70;3.45;;;;;;;27.90;38.24;96500.53;5063507;28;20546;-64
2022/08/01 09:59:57;;;;;;;2.95;2.70;;;;;;;27.78;38.37;96493.09;5071692;28;20044;-58
2022/08/01 10:02:35;;;;;;;3.65;3.35;;;;;;;27.94;38.25;96495.41;5066720;28;20435;-68
2022/08/01 10:05:04;;;;;;;3.92;3.30;;;;;;;27.73;36.58;96473.06;5065885;28;20127;-65
2022/08/01 10:07:36;;;;;;;3.53;3.22;;;;;;;27.80;37.05;96470.59;5062975;28;20435;-56
2022/08/01 10:10:15;;;;;;;3.33;3.10;;;;;;;28.08;38.13;96505.16;5069408;28;20068;-57
2022/08/01 10:12:42;;;;;;;3.60;3.40;;;;;;;28.14;36.94;96518.19;5084792;28;20044;-69
2022/08/01 10:15:14;;;;;;;3.88;3.53;;;;;;;28.06;36.88;96497.09;5079167;28;20052;-67
2022/08/01 10:17:46;;;;;;;3.13;2.92;;;;;;;28.13;36.83;96485.28;5067415;28;20081;-56
2022/08/01 10:20:23;;;;;;;3.38;3.13;;;;;;;28.34;36.60;96493.81;5075104;28;20048;-74
2022/08/01 10:23:02;;;;;;;3.85;3.55;;;;;;;28.28;37.39;96492.97;5073704;28;20053;-58
2022/08/01 10:25:40;;;;;;;3.20;3.00;;;;;;;28.15;36.60;96494.09;5081420;28;20254;-69
2022/08/01 10:28:18;;;;;;;3.20;2.90;;;;;;;28.13;36.96;96496.69;5081339;28;20056;-56
2022/08/01 10:30:50;;;;;;;3.55;3.35;;;;;;;27.91;36.96;96485.03;5080433;28;20056;-65
2022/08/01 10:33:22;;;;;;;4.38;3.20;;;;;;;28.13;36.99;96496.69;5075124;28;20044;-64
2022/08/01 10:36:09;;;;;;;3.90;2.90;;;;;;;28.23;37.00;96487.97;5063336;28;20109;-63
2022/08/01 10:38:37;;;;;;;3.63;2.95;;;;;;;28.05;37.12;96487.00;5076081;28;20139;-63
2022/08/01 10:41:04;;;;;;;3.42;3.13;;;;;;;28.26;37.78;96487.75;5084783;28;20048;-57
2022/08/01 10:43:35;;;;;;;2.85;2.65;;;;;;;28.34;36.78;96488.09;5084546;28;20062;-59
2022/08/01 10:46:05;;;;;;;3.15;2.95;;;;;;;28.30;36.01;96485.47;5084671;28;20138;-56
2022/08/01 10:49:00;;;;;;;3.35;2.85;;;;;;;28.14;36.85;96486.84;5081227;28;20133;-68
2022/08/01 10:51:28;;;;;;;6.35;3.33;;;;;;;28.21;36.43;96479.94;5056097;28;20060;-69
2022/08/01 10:54:15;;;;;;;6.45;4.05;;;;;;;28.29;37.26;96485.97;5084909;28;20052;-56
2022/08/01 10:56:48;;;;;;;3.53;3.30;;;;;;;28.26;36.65;96498.38;5084723;28;20047;-61
2022/08/01 10:59:21;;;;;;;3.05;2.85;;;;;;;28.13;35.56;96467.41;5083047;28;20059;-69
2022/08/01 11:02:07;;;;;;;3.45;3.15;;;;;;;28.23;35.63;96477.38;5084452;28;20063;-58
2022/08/01 11:04:44;;;;;;;3.13;2.92;;;;;;;28.58;36.19;96480.09;5069672;28;20055;-69
2022/08/01 11:07:20;;;;;;;3.40;3.10;;;;;;;28.70;34.84;96504.56;5064605;28;20529;-77
2022/08/01 11:10:10;;;;;;;3.10;2.90;;;;;;;28.42;35.64;96472.13;5080759;28;20123;-59
2022/08/01 11:12:42;;;;;;;3.60;3.30;;;;;;;28.86;35.82;96493.34;5072449;28;20052;-59
2022/08/01 11:15:09;;;;;;;4.07;3.78;;;;;;;28.98;36.25;96479.94;5085179;28;20140;-58
2022/08/01 11:17:49;;;;;;;4.05;3.75;;;;;;;28.93;36.19;96481.47;5081175;28;20177;-70
2022/08/01 11:20:20;;;;;;;4.05;3.75;;;;;;;29.41;35.15;96467.31;5088193;28;20065;-60
2022/08/01 11:23:01;;;;;;;3.88;3.58;;;;;;;29.78;35.37;96456.69;5080999;28;20491;-59
2022/08/01 11:25:39;;;;;;;4.00;3.70;;;;;;;29.87;34.52;96465.03;5067936;28;20090;-69
2022/08/01 11:28:27;;;;;;;3.72;3.45;;;;;;;29.77;34.96;96466.53;5079994;28;20052;-74
2022/08/01 11:31:06;;;;;;;3.40;3.10;;;;;;;29.21;34.43;96433.97;5087472;28;20492;-60
2022/08/01 11:33:40;;;;;;;3.83;3.53;;;;;;;29.59;34.58;96484.06;5083853;28;20060;-62
2022/08/01 11:36:13;;;;;;;4.32;3.13;;;;;;;29.77;34.37;96469.38;5085979;28;20059;-68
2022/08/01 11:38:48;;;;;;;4.05;3.20;;;;;;;29.80;33.84;96482.63;5076099;28;20135;-62
2022/08/01 11:41:17;;;;;;;3.50;3.28;;;;;;;29.83;34.36;96473.03;5070303;28;20158;-58
2022/08/01 11:44:06;;;;;;;3.67;3.47;;;;;;;29.34;33.99;96474.28;5074246;28;20044;-64
2022/08/01 11:46:59;;;;;;;4.55;3.20;;;;;;;29.54;34.57;96471.28;5081103;28;20458;-59
2022/08/01 11:49:45;;;;;;;3.75;3.20;;;;;;;29.27;34.97;96476.84;5083160;28;20040;-76